createdAt,value
2022-12-14T00:00:11.887Z,0.00
2022-12-14T00:01:10.432Z,0.00
2022-12-14T00:02:11.840Z,0.00
2022-12-14T00:03:10.470Z,0.00
2022-12-14T00:04:10.597Z,0.00
2022-12-14T00:05:09.987Z,0.00
2022-12-14T00:06:10.457Z,0.00
2022-12-14T00:07:09.915Z,0.00
2022-12-14T00:08:10.332Z,0.00
2022-12-14T00:09:10.727Z,0.00
2022-12-14T00:10:11.047Z,0.00
2022-12-14T00:11:10.554Z,0.00
2022-12-14T00:12:10.199Z,0.00
2022-12-14T00:13:11.321Z,0.00
2022-12-14T00:14:11.774Z,0.00
2022-12-14T00:15:10.223Z,0.00
2022-12-14T00:16:10.662Z,0.00
2022-12-14T00:17:11.026Z,0.00
2022-12-14T00:18:10.656Z,0.00
2022-12-14T00:19:09.875Z,0.00
2022-12-14T00:20:10.337Z,0.00
2022-12-14T00:21:09.751Z,0.00
2022-12-14T00:22:11.138Z,0.00
2022-12-14T00:23:11.582Z,0.00
2022-12-14T00:24:10.052Z,0.00
2022-12-14T00:25:10.459Z,0.00
2022-12-14T00:26:11.966Z,0.00
2022-12-14T00:27:11.197Z,0.00
2022-12-14T00:28:11.652Z,0.00
2022-12-14T00:29:11.078Z,0.00
2022-12-14T00:30:10.541Z,0.00
2022-12-14T00:31:09.979Z,0.00
2022-12-14T00:32:10.343Z,0.00
2022-12-14T00:33:09.716Z,0.00
2022-12-14T00:34:15.413Z,0.00
2022-12-14T00:35:09.591Z,0.00
2022-12-14T00:36:10.028Z,0.00
2022-12-14T00:37:09.647Z,0.00
2022-12-14T00:38:10.042Z,0.00
2022-12-14T00:39:10.476Z,0.00
2022-12-14T00:40:09.974Z,0.00
2022-12-14T00:41:10.277Z,0.00
2022-12-14T00:42:10.657Z,0.00
2022-12-14T00:43:16.346Z,0.00
2022-12-14T00:44:09.516Z,0.00
2022-12-14T00:45:11.357Z,0.00
2022-12-14T00:46:10.611Z,0.00
2022-12-14T00:47:10.756Z,0.00
2022-12-14T00:48:10.117Z,0.00
2022-12-14T00:49:10.957Z,0.00
2022-12-14T00:50:09.966Z,0.00
2022-12-14T00:51:13.532Z,0.00
2022-12-14T00:52:11.832Z,0.00
2022-12-14T00:53:11.207Z,0.00
2022-12-14T00:54:09.657Z,0.00
2022-12-14T00:55:11.181Z,0.00
2022-12-14T00:56:09.457Z,0.00
2022-12-14T00:57:10.052Z,0.00
2022-12-14T00:58:11.330Z,0.00
2022-12-14T00:59:09.697Z,0.00
2022-12-14T01:00:11.081Z,0.00
2022-12-14T01:01:11.936Z,0.00
2022-12-14T01:02:10.086Z,0.00
2022-12-14T01:03:11.230Z,0.00
2022-12-14T01:04:09.817Z,0.00
2022-12-14T01:05:11.153Z,0.00
2022-12-14T01:06:09.587Z,0.00
2022-12-14T01:07:10.991Z,0.00
2022-12-14T01:08:10.361Z,0.00
2022-12-14T01:09:10.036Z,0.00
2022-12-14T01:10:09.217Z,0.00
2022-12-14T01:11:10.686Z,0.00
2022-12-14T01:12:09.023Z,0.00
2022-12-14T01:13:10.522Z,0.00
2022-12-14T01:14:09.883Z,0.00
2022-12-14T01:15:10.277Z,0.00
2022-12-14T01:16:09.758Z,0.00
2022-12-14T01:17:10.188Z,0.00
2022-12-14T01:18:09.526Z,0.00
2022-12-14T01:19:09.941Z,0.00
2022-12-14T01:20:09.301Z,0.00
2022-12-14T01:21:16.111Z,0.00
2022-12-14T01:22:10.136Z,0.00
2022-12-14T01:23:10.471Z,0.00
2022-12-14T01:24:10.901Z,0.00
2022-12-14T01:25:10.086Z,0.00
2022-12-14T01:26:09.541Z,0.00
2022-12-14T01:27:10.951Z,0.00
2022-12-14T01:28:11.322Z,0.00
2022-12-14T01:29:09.765Z,0.00
2022-12-14T01:30:11.129Z,0.00
2022-12-14T01:31:09.566Z,0.00
2022-12-14T01:32:08.906Z,0.00
2022-12-14T01:33:10.363Z,0.00
2022-12-14T01:34:09.746Z,0.00
2022-12-14T01:35:12.217Z,0.00
2022-12-14T01:36:09.533Z,0.00
2022-12-14T01:37:08.882Z,0.00
2022-12-14T01:38:10.281Z,0.00
2022-12-14T01:39:08.886Z,0.00
2022-12-14T01:40:11.306Z,0.00
2022-12-14T01:41:09.662Z,0.00
2022-12-14T01:42:09.113Z,0.00
2022-12-14T01:43:10.383Z,0.00
2022-12-14T01:44:09.839Z,0.00
2022-12-14T01:45:11.291Z,0.00
2022-12-14T01:46:10.765Z,0.00
2022-12-14T01:47:12.901Z,0.00
2022-12-14T01:48:09.461Z,0.00
2022-12-14T01:49:10.048Z,0.00
2022-12-14T01:50:10.212Z,0.00
2022-12-14T01:51:11.802Z,0.00
2022-12-14T01:52:11.077Z,0.00
2022-12-14T01:53:10.439Z,0.00
2022-12-14T01:54:09.822Z,0.00
2022-12-14T01:55:11.322Z,0.00
2022-12-14T01:56:08.662Z,0.00
2022-12-14T01:57:11.081Z,0.00
2022-12-14T01:58:08.796Z,0.00
2022-12-14T01:59:09.876Z,0.00
2022-12-14T02:00:11.327Z,0.00
2022-12-14T02:01:09.740Z,0.00
2022-12-14T02:02:09.244Z,0.00
2022-12-14T02:03:08.528Z,0.00
2022-12-14T02:04:08.902Z,0.00
2022-12-14T02:05:09.402Z,0.00
2022-12-14T02:06:08.713Z,0.00
2022-12-14T02:07:12.897Z,0.00
2022-12-14T02:08:08.524Z,0.00
2022-12-14T02:09:09.895Z,0.00
2022-12-14T02:10:11.452Z,0.00
2022-12-14T02:11:08.713Z,0.00
2022-12-14T02:12:12.259Z,0.00
2022-12-14T02:13:09.493Z,0.00
2022-12-14T02:14:09.868Z,0.00
2022-12-14T02:15:10.287Z,0.00
2022-12-14T02:16:09.672Z,0.00
2022-12-14T02:17:10.067Z,0.00
2022-12-14T02:18:10.592Z,0.00
2022-12-14T02:19:08.922Z,0.00
2022-12-14T02:20:10.258Z,0.00
2022-12-14T02:21:08.722Z,0.00
2022-12-14T02:22:09.125Z,0.00
2022-12-14T02:23:09.572Z,0.00
2022-12-14T02:24:12.327Z,0.00
2022-12-14T02:25:08.296Z,0.00
2022-12-14T02:26:10.686Z,0.00
2022-12-14T02:27:10.171Z,0.00
2022-12-14T02:28:11.591Z,0.00
2022-12-14T02:29:09.907Z,0.00
2022-12-14T02:30:11.434Z,0.00
2022-12-14T02:31:08.653Z,0.00
2022-12-14T02:32:08.988Z,0.00
2022-12-14T02:33:09.437Z,0.00
2022-12-14T02:34:09.837Z,0.00
2022-12-14T02:35:09.181Z,0.00
2022-12-14T02:36:08.811Z,0.00
2022-12-14T02:37:10.106Z,0.00
2022-12-14T02:38:10.478Z,0.00
2022-12-14T02:39:09.921Z,0.00
2022-12-14T02:40:08.253Z,0.00
2022-12-14T02:41:11.948Z,0.00
2022-12-14T02:42:13.298Z,0.00
2022-12-14T02:43:09.517Z,0.00
2022-12-14T02:44:07.888Z,0.00
2022-12-14T02:45:09.257Z,0.00
2022-12-14T02:46:08.746Z,0.00
2022-12-14T02:47:08.311Z,0.00
2022-12-14T02:48:09.037Z,0.00
2022-12-14T02:49:09.622Z,0.00
2022-12-14T02:50:08.876Z,0.00
2022-12-14T02:51:08.407Z,0.00
2022-12-14T02:52:08.917Z,0.00
2022-12-14T02:53:08.182Z,0.00
2022-12-14T02:54:09.572Z,0.00
2022-12-14T02:55:09.082Z,0.00
2022-12-14T02:56:08.457Z,0.00
2022-12-14T02:57:08.806Z,0.00
2022-12-14T02:58:08.347Z,0.00
2022-12-14T02:59:08.638Z,0.00
2022-12-14T03:00:12.307Z,0.00
2022-12-14T03:01:09.686Z,0.00
2022-12-14T03:02:09.068Z,0.00
2022-12-14T03:03:09.564Z,0.00
2022-12-14T03:04:08.856Z,0.00
2022-12-14T03:05:11.388Z,0.00
2022-12-14T03:06:07.739Z,0.00
2022-12-14T03:07:09.097Z,0.00
2022-12-14T03:08:08.737Z,0.00
2022-12-14T03:09:08.059Z,0.00
2022-12-14T03:10:09.581Z,0.00
2022-12-14T03:11:07.923Z,0.00
2022-12-14T03:12:11.582Z,0.00
2022-12-14T03:13:08.808Z,0.00
2022-12-14T03:14:08.335Z,0.00
2022-12-14T03:15:11.727Z,0.00
2022-12-14T03:16:09.209Z,0.00
2022-12-14T03:17:15.163Z,0.00
2022-12-14T03:18:08.980Z,0.00
2022-12-14T03:19:09.462Z,0.00
2022-12-14T03:20:07.853Z,0.00
2022-12-14T03:21:14.556Z,0.00
2022-12-14T03:22:08.847Z,0.00
2022-12-14T03:23:09.243Z,0.00
2022-12-14T03:24:08.659Z,0.00
2022-12-14T03:25:10.068Z,0.00
2022-12-14T03:26:07.494Z,0.00
2022-12-14T03:27:10.058Z,0.00
2022-12-14T03:28:07.437Z,0.00
2022-12-14T03:29:11.042Z,0.00
2022-12-14T03:30:07.390Z,0.00
2022-12-14T03:31:09.881Z,0.00
2022-12-14T03:32:09.327Z,0.00
2022-12-14T03:33:07.698Z,0.00
2022-12-14T03:34:13.378Z,0.00
2022-12-14T03:35:09.627Z,0.00
2022-12-14T03:36:08.978Z,0.00
2022-12-14T03:37:08.542Z,0.00
2022-12-14T03:38:09.886Z,0.00
2022-12-14T03:39:07.293Z,0.00
2022-12-14T03:40:11.552Z,0.00
2022-12-14T03:41:08.846Z,0.00
2022-12-14T03:42:08.175Z,0.00
2022-12-14T03:43:10.812Z,0.00
2022-12-14T03:44:10.134Z,0.00
2022-12-14T03:45:08.562Z,0.00
2022-12-14T03:46:09.073Z,0.00
2022-12-14T03:47:09.393Z,0.00
2022-12-14T03:48:08.882Z,0.00
2022-12-14T03:49:08.292Z,0.00
2022-12-14T03:50:09.712Z,0.00
2022-12-14T03:51:09.172Z,0.00
2022-12-14T03:52:08.772Z,0.00
2022-12-14T03:53:07.051Z,0.00
2022-12-14T03:54:08.592Z,0.00
2022-12-14T03:55:11.041Z,0.00
2022-12-14T03:56:07.412Z,0.00
2022-12-14T03:57:10.952Z,0.00
2022-12-14T03:58:08.355Z,0.00
2022-12-14T03:59:09.855Z,0.00
2022-12-14T04:00:09.282Z,0.00
2022-12-14T04:01:09.798Z,0.00
2022-12-14T04:02:09.382Z,0.00
2022-12-14T04:03:09.649Z,0.00
2022-12-14T04:04:09.964Z,0.00
2022-12-14T04:05:10.433Z,0.00
2022-12-14T04:06:09.921Z,0.00
2022-12-14T04:07:09.321Z,0.00
2022-12-14T04:08:07.712Z,0.00
2022-12-14T04:09:10.488Z,0.00
2022-12-14T04:10:09.666Z,0.00
2022-12-14T04:11:06.987Z,0.00
2022-12-14T04:12:11.598Z,0.00
2022-12-14T04:13:09.969Z,0.00
2022-12-14T04:14:07.298Z,0.00
2022-12-14T04:15:08.943Z,0.00
2022-12-14T04:16:13.447Z,0.00
2022-12-14T04:17:10.662Z,0.00
2022-12-14T04:18:10.063Z,0.00
2022-12-14T04:19:07.492Z,0.00
2022-12-14T04:20:08.902Z,0.00
2022-12-14T04:21:09.533Z,0.00
2022-12-14T04:22:06.777Z,0.00
2022-12-14T04:23:08.312Z,0.00
2022-12-14T04:24:08.694Z,0.00
2022-12-14T04:25:07.073Z,0.00
2022-12-14T04:26:11.752Z,0.00
2022-12-14T04:27:10.063Z,0.00
2022-12-14T04:28:08.368Z,0.00
2022-12-14T04:29:11.002Z,0.00
2022-12-14T04:30:09.402Z,0.00
2022-12-14T04:31:08.792Z,0.00
2022-12-14T04:32:07.803Z,0.00
2022-12-14T04:33:09.672Z,0.00
2022-12-14T04:34:08.132Z,0.00
2022-12-14T04:35:06.503Z,0.00
2022-12-14T04:36:12.108Z,0.00
2022-12-14T04:37:06.412Z,0.00
2022-12-14T04:38:09.968Z,0.00
2022-12-14T04:39:08.502Z,0.00
2022-12-14T04:40:06.767Z,0.00
2022-12-14T04:41:08.277Z,0.00
2022-12-14T04:42:08.783Z,0.00
2022-12-14T04:43:07.132Z,0.00
2022-12-14T04:44:09.838Z,0.00
2022-12-14T04:45:10.246Z,0.00
2022-12-14T04:46:09.600Z,0.00
2022-12-14T04:47:07.013Z,0.00
2022-12-14T04:48:08.538Z,0.00
2022-12-14T04:49:06.932Z,0.00
2022-12-14T04:50:09.778Z,0.00
2022-12-14T04:51:07.879Z,0.00
2022-12-14T04:52:06.249Z,0.00
2022-12-14T04:53:09.868Z,0.00
2022-12-14T04:54:08.289Z,0.00
2022-12-14T04:55:09.727Z,0.00
2022-12-14T04:56:09.249Z,0.00
2022-12-14T04:57:12.246Z,0.00
2022-12-14T04:58:08.037Z,0.00
2022-12-14T04:59:08.552Z,0.00
2022-12-14T05:00:06.932Z,0.00
2022-12-14T05:01:08.613Z,0.00
2022-12-14T05:02:09.085Z,0.00
2022-12-14T05:03:09.497Z,0.00
2022-12-14T05:04:12.951Z,0.00
2022-12-14T05:05:09.337Z,0.00
2022-12-14T05:06:09.807Z,0.00
2022-12-14T05:07:09.297Z,0.00
2022-12-14T05:08:09.692Z,0.00
2022-12-14T05:09:09.168Z,0.00
2022-12-14T05:10:09.638Z,0.00
2022-12-14T05:11:39.569Z,0.00
2022-12-14T05:12:09.587Z,0.00
2022-12-14T05:13:08.982Z,0.00
2022-12-14T05:14:08.423Z,0.00
2022-12-14T05:15:07.903Z,0.00
2022-12-14T05:16:09.386Z,0.00
2022-12-14T05:17:09.664Z,0.00
2022-12-14T05:18:09.457Z,0.00
2022-12-14T05:19:10.796Z,0.00
2022-12-14T05:20:09.186Z,0.00
2022-12-14T05:21:08.763Z,0.00
2022-12-14T05:22:05.947Z,0.00
2022-12-14T05:23:08.556Z,0.00
2022-12-14T05:24:07.928Z,0.00
2022-12-14T05:25:11.522Z,0.00
2022-12-14T05:26:08.847Z,0.00
2022-12-14T05:27:06.176Z,0.00
2022-12-14T05:28:08.717Z,0.00
2022-12-14T05:29:07.162Z,0.00
2022-12-14T05:30:06.521Z,0.00
2022-12-14T05:31:09.173Z,0.00
2022-12-14T05:32:14.797Z,0.00
2022-12-14T05:33:05.897Z,0.00
2022-12-14T05:34:06.329Z,0.00
2022-12-14T05:35:08.032Z,0.00
2022-12-14T05:36:06.237Z,0.00
2022-12-14T05:37:18.005Z,0.00
2022-12-14T05:38:07.121Z,0.00
2022-12-14T05:39:06.609Z,0.00
2022-12-14T05:40:06.007Z,0.00
2022-12-14T05:41:07.321Z,0.00
2022-12-14T05:42:05.923Z,0.00
2022-12-14T05:43:06.387Z,0.00
2022-12-14T05:44:05.818Z,0.00
2022-12-14T05:45:32.307Z,0.00
2022-12-14T05:46:05.770Z,0.00
2022-12-14T05:47:07.312Z,0.00
2022-12-14T05:48:05.587Z,0.00
2022-12-14T05:49:31.127Z,0.00
2022-12-14T05:50:05.517Z,0.00
2022-12-14T05:51:05.977Z,0.00
2022-12-14T05:52:07.408Z,0.00
2022-12-14T05:53:07.765Z,0.00
2022-12-14T05:54:08.356Z,0.00
2022-12-14T05:55:06.833Z,0.00
2022-12-14T05:56:08.274Z,0.00
2022-12-14T05:57:08.711Z,0.00
2022-12-14T05:58:06.222Z,0.00
2022-12-14T05:59:31.657Z,0.00
2022-12-14T06:00:06.042Z,0.00
2022-12-14T06:01:05.487Z,0.00
2022-12-14T06:02:05.992Z,0.00
2022-12-14T06:03:06.423Z,0.00
2022-12-14T06:04:05.801Z,0.00
2022-12-14T06:05:07.365Z,0.00
2022-12-14T06:06:05.643Z,0.00
2022-12-14T06:07:06.122Z,0.00
2022-12-14T06:08:05.578Z,0.00
2022-12-14T06:09:08.021Z,0.00
2022-12-14T06:10:06.486Z,0.00
2022-12-14T06:11:06.423Z,0.00
2022-12-14T06:12:08.363Z,0.00
2022-12-14T06:13:05.772Z,0.00
2022-12-14T06:14:05.207Z,0.00
2022-12-14T06:15:07.797Z,0.00
2022-12-14T06:16:07.301Z,0.00
2022-12-14T06:17:07.783Z,0.00
2022-12-14T06:18:07.012Z,0.00
2022-12-14T06:19:06.466Z,0.00
2022-12-14T06:20:06.912Z,0.00
2022-12-14T06:21:06.361Z,0.00
2022-12-14T06:22:06.423Z,0.00
2022-12-14T06:23:07.293Z,0.00
2022-12-14T06:24:06.741Z,0.00
2022-12-14T06:25:06.233Z,0.00
2022-12-14T06:26:05.681Z,0.00
2022-12-14T06:27:05.115Z,0.00
2022-12-14T06:28:07.886Z,0.00
2022-12-14T06:29:06.006Z,0.00
2022-12-14T06:30:06.391Z,0.00
2022-12-14T06:31:05.926Z,0.00
2022-12-14T06:32:05.272Z,0.00
2022-12-14T06:33:06.847Z,0.00
2022-12-14T06:34:06.993Z,0.00
2022-12-14T06:35:05.706Z,0.00
2022-12-14T06:36:05.132Z,0.00
2022-12-14T06:37:05.638Z,0.00
2022-12-14T06:38:06.037Z,0.00
2022-12-14T06:39:07.511Z,0.00
2022-12-14T06:40:07.318Z,0.00
2022-12-14T06:41:05.496Z,0.00
2022-12-14T06:42:05.976Z,0.00
2022-12-14T06:43:06.463Z,0.00
2022-12-14T06:44:06.869Z,0.00
2022-12-14T06:45:05.312Z,0.00
2022-12-14T06:46:11.483Z,0.00
2022-12-14T06:47:06.214Z,0.00
2022-12-14T06:48:05.745Z,0.00
2022-12-14T06:49:05.142Z,0.00
2022-12-14T06:50:06.561Z,0.00
2022-12-14T06:51:05.956Z,0.00
2022-12-14T06:52:07.812Z,0.00
2022-12-14T06:53:04.912Z,0.00
2022-12-14T06:54:06.344Z,0.00
2022-12-14T06:55:04.818Z,0.00
2022-12-14T06:56:05.292Z,0.00
2022-12-14T06:57:04.722Z,0.00
2022-12-14T06:58:13.707Z,0.00
2022-12-14T06:59:05.661Z,0.00
2022-12-14T07:00:05.977Z,0.00
2022-12-14T07:01:06.459Z,0.00
2022-12-14T07:02:07.092Z,0.00
2022-12-14T07:03:05.471Z,0.00
2022-12-14T07:04:07.338Z,0.00
2022-12-14T07:05:05.196Z,0.00
2022-12-14T07:06:04.672Z,0.00
2022-12-14T07:07:05.082Z,0.00
2022-12-14T07:08:07.626Z,0.00
2022-12-14T07:09:06.118Z,0.00
2022-12-14T07:10:07.264Z,0.00
2022-12-14T07:11:06.976Z,0.00
2022-12-14T07:12:06.326Z,0.00
2022-12-14T07:13:05.809Z,0.00
2022-12-14T07:14:05.291Z,0.00
2022-12-14T07:15:04.679Z,0.00
2022-12-14T07:16:11.575Z,0.00
2022-12-14T07:17:04.582Z,0.00
2022-12-14T07:18:06.102Z,0.00
2022-12-14T07:19:05.541Z,0.00
2022-12-14T07:20:04.980Z,0.00
2022-12-14T07:21:08.787Z,0.00
2022-12-14T07:22:05.899Z,0.00
2022-12-14T07:23:04.304Z,0.00
2022-12-14T07:24:04.787Z,0.00
2022-12-14T07:25:05.211Z,0.00
2022-12-14T07:26:04.576Z,0.00
2022-12-14T07:27:06.462Z,0.00
2022-12-14T07:28:05.486Z,0.00
2022-12-14T07:29:06.897Z,0.00
2022-12-14T07:30:06.267Z,0.00
2022-12-14T07:31:04.777Z,0.00
2022-12-14T07:32:06.042Z,0.00
2022-12-14T07:33:06.902Z,0.00
2022-12-14T07:34:05.052Z,0.00
2022-12-14T07:35:04.449Z,0.00
2022-12-14T07:36:05.967Z,0.00
2022-12-14T07:37:04.316Z,0.00
2022-12-14T07:38:04.791Z,0.00
2022-12-14T07:39:07.887Z,0.00
2022-12-14T07:40:04.648Z,0.00
2022-12-14T07:41:07.177Z,0.00
2022-12-14T07:42:05.562Z,0.00
2022-12-14T07:43:04.971Z,0.00
2022-12-14T07:44:05.401Z,0.00
2022-12-14T07:45:06.843Z,0.00
2022-12-14T07:46:04.282Z,0.00
2022-12-14T07:47:08.160Z,0.00
2022-12-14T07:48:05.126Z,0.00
2022-12-14T07:49:04.566Z,0.00
2022-12-14T07:50:03.948Z,0.00
2022-12-14T07:51:07.587Z,0.00
2022-12-14T07:52:04.894Z,0.00
2022-12-14T07:53:08.368Z,5.62
2022-12-14T07:54:04.783Z,5.62
2022-12-14T07:55:05.094Z,5.62
2022-12-14T07:56:04.693Z,5.62
2022-12-14T07:57:05.037Z,5.62
2022-12-14T07:58:05.176Z,5.62
2022-12-14T07:59:03.922Z,5.62
2022-12-14T08:00:04.304Z,5.62
2022-12-14T08:01:05.737Z,5.62
2022-12-14T08:02:06.511Z,5.62
2022-12-14T08:03:04.663Z,5.62
2022-12-14T08:04:05.253Z,5.62
2022-12-14T08:05:10.623Z,5.62
2022-12-14T08:06:05.042Z,11.25
2022-12-14T08:07:04.461Z,11.25
2022-12-14T08:08:04.880Z,11.25
2022-12-14T08:09:05.346Z,11.25
2022-12-14T08:10:03.824Z,11.25
2022-12-14T08:11:05.201Z,11.25
2022-12-14T08:12:04.748Z,11.25
2022-12-14T08:13:06.437Z,11.25
2022-12-14T08:14:04.598Z,11.25
2022-12-14T08:15:11.336Z,11.25
2022-12-14T08:16:04.518Z,11.25
2022-12-14T08:17:05.970Z,11.25
2022-12-14T08:18:05.794Z,11.25
2022-12-14T08:19:06.311Z,16.88
2022-12-14T08:20:05.177Z,16.88
2022-12-14T08:21:04.588Z,16.88
2022-12-14T08:22:05.160Z,16.88
2022-12-14T08:23:05.463Z,16.88
2022-12-14T08:24:04.951Z,11.25
2022-12-14T08:25:06.956Z,11.25
2022-12-14T08:26:04.937Z,11.25
2022-12-14T08:27:04.234Z,11.25
2022-12-14T08:28:05.722Z,11.25
2022-12-14T08:29:06.106Z,11.25
2022-12-14T08:30:04.474Z,11.25
2022-12-14T08:31:06.424Z,11.25
2022-12-14T08:32:05.378Z,11.25
2022-12-14T08:33:07.884Z,11.25
2022-12-14T08:34:10.493Z,11.25
2022-12-14T08:35:03.691Z,11.25
2022-12-14T08:36:04.142Z,11.25
2022-12-14T08:37:03.769Z,11.25
2022-12-14T08:38:07.146Z,11.25
2022-12-14T08:39:03.421Z,11.25
2022-12-14T08:40:04.891Z,11.25
2022-12-14T08:41:05.268Z,11.25
2022-12-14T08:42:07.586Z,11.25
2022-12-14T08:43:04.166Z,11.25
2022-12-14T08:44:06.735Z,11.25
2022-12-14T08:45:05.172Z,16.88
2022-12-14T08:46:03.461Z,16.88
2022-12-14T08:47:07.043Z,16.88
2022-12-14T08:48:06.336Z,16.88
2022-12-14T08:49:03.805Z,16.88
2022-12-14T08:50:07.363Z,22.50
2022-12-14T08:51:05.753Z,22.50
2022-12-14T08:52:05.167Z,22.50
2022-12-14T08:53:03.587Z,28.12
2022-12-14T08:54:07.197Z,28.12
2022-12-14T08:55:05.541Z,28.12
2022-12-14T08:56:03.896Z,28.12
2022-12-14T08:57:06.418Z,28.12
2022-12-14T08:58:04.706Z,28.12
2022-12-14T08:59:03.203Z,28.12
2022-12-14T09:00:03.777Z,33.75
2022-12-14T09:01:05.107Z,33.75
2022-12-14T09:02:04.532Z,33.75
2022-12-14T09:03:05.014Z,33.75
2022-12-14T09:04:05.436Z,33.75
2022-12-14T09:05:04.791Z,33.75
2022-12-14T09:06:04.262Z,33.75
2022-12-14T09:07:04.677Z,33.75
2022-12-14T09:08:04.107Z,33.75
2022-12-14T09:09:09.140Z,33.75
2022-12-14T09:10:04.016Z,33.75
2022-12-14T09:11:04.477Z,33.75
2022-12-14T09:12:04.873Z,39.38
2022-12-14T09:13:04.333Z,39.38
2022-12-14T09:14:04.732Z,45.00
2022-12-14T09:15:04.121Z,45.00
2022-12-14T09:16:03.745Z,45.00
2022-12-14T09:17:03.061Z,50.62
2022-12-14T09:18:03.495Z,50.62
2022-12-14T09:19:03.877Z,50.62
2022-12-14T09:20:06.523Z,50.62
2022-12-14T09:21:02.777Z,56.25
2022-12-14T09:22:31.487Z,56.25
2022-12-14T09:23:04.776Z,56.25
2022-12-14T09:24:03.213Z,56.25
2022-12-14T09:25:04.846Z,56.25
2022-12-14T09:26:03.017Z,56.25
2022-12-14T09:27:03.466Z,56.25
2022-12-14T09:28:43.842Z,61.88
2022-12-14T09:29:03.311Z,61.88
2022-12-14T09:30:02.718Z,67.50
2022-12-14T09:31:03.188Z,67.50
2022-12-14T09:32:04.720Z,67.50
2022-12-14T09:33:03.062Z,73.12
2022-12-14T09:34:06.312Z,73.12
2022-12-14T09:35:03.007Z,78.75
2022-12-14T09:36:03.400Z,78.75
2022-12-14T09:37:28.867Z,84.38
2022-12-14T09:38:03.297Z,84.38
2022-12-14T09:39:04.672Z,84.38
2022-12-14T09:40:03.152Z,84.38
2022-12-14T09:41:30.685Z,84.38
2022-12-14T09:42:02.961Z,84.38
2022-12-14T09:43:03.433Z,84.38
2022-12-14T09:44:02.822Z,84.38
2022-12-14T09:45:29.640Z,84.38
2022-12-14T09:46:02.700Z,84.38
2022-12-14T09:47:04.122Z,84.38
2022-12-14T09:48:05.765Z,90.00
2022-12-14T09:49:06.006Z,90.00
2022-12-14T09:50:03.411Z,90.00
2022-12-14T09:51:06.654Z,95.62
2022-12-14T09:52:04.132Z,101.25
2022-12-14T09:53:04.593Z,106.88
2022-12-14T09:54:04.982Z,106.88
2022-12-14T09:55:05.468Z,112.50
2022-12-14T09:56:03.776Z,118.12
2022-12-14T09:57:03.356Z,123.75
2022-12-14T09:58:09.959Z,135.00
2022-12-14T09:59:03.028Z,140.62
2022-12-14T10:00:03.554Z,146.25
2022-12-14T10:01:02.948Z,151.88
2022-12-14T10:03:07.528Z,140.62
2022-12-14T10:04:04.230Z,129.38
2022-12-14T10:05:02.555Z,118.12
2022-12-14T10:06:03.935Z,112.50
2022-12-14T10:07:02.416Z,112.50
2022-12-14T10:08:03.796Z,112.50
2022-12-14T10:09:02.317Z,118.12
2022-12-14T10:10:03.667Z,123.75
2022-12-14T10:11:03.132Z,129.38
2022-12-14T10:12:02.621Z,140.62
2022-12-14T10:13:02.997Z,151.88
2022-12-14T10:14:02.476Z,163.12
2022-12-14T10:15:02.849Z,168.75
2022-12-14T10:16:02.291Z,174.38
2022-12-14T10:17:02.753Z,180.00
2022-12-14T10:18:03.078Z,191.25
2022-12-14T10:19:06.696Z,202.50
2022-12-14T10:20:04.895Z,208.12
2022-12-14T10:21:03.372Z,225.00
2022-12-14T10:22:03.760Z,241.88
2022-12-14T10:23:42.769Z,270.00
2022-12-14T10:24:02.589Z,275.62
2022-12-14T10:25:03.060Z,281.25
2022-12-14T10:26:04.370Z,281.25
2022-12-14T10:27:03.867Z,275.62
2022-12-14T10:28:12.204Z,270.00
2022-12-14T10:29:03.601Z,264.38
2022-12-14T10:30:06.375Z,247.50
2022-12-14T10:31:05.552Z,230.62
2022-12-14T10:32:03.016Z,219.38
2022-12-14T10:33:05.399Z,213.75
2022-12-14T10:34:05.470Z,202.50
2022-12-14T10:35:42.704Z,191.25
2022-12-14T10:36:02.502Z,185.62
2022-12-14T10:37:01.877Z,180.00
2022-12-14T10:38:29.417Z,168.75
2022-12-14T10:39:02.752Z,168.75
2022-12-14T10:40:12.495Z,163.12
2022-12-14T10:41:03.688Z,157.50
2022-12-14T10:42:17.540Z,151.88
2022-12-14T10:43:04.444Z,146.25
2022-12-14T10:44:03.867Z,140.62
2022-12-14T10:45:31.512Z,146.25
2022-12-14T10:46:13.497Z,146.25
2022-12-14T10:47:03.012Z,151.88
2022-12-14T10:48:16.976Z,151.88
2022-12-14T10:49:04.163Z,157.50
2022-12-14T10:50:02.161Z,157.50
2022-12-14T10:51:04.589Z,157.50
2022-12-14T10:52:03.026Z,157.50
2022-12-14T10:53:04.441Z,151.88
2022-12-14T10:54:01.757Z,146.25
2022-12-14T10:55:04.341Z,140.62
2022-12-14T10:56:02.585Z,140.62
2022-12-14T10:57:02.096Z,140.62
2022-12-14T10:58:03.502Z,140.62
2022-12-14T10:59:03.672Z,140.62
2022-12-14T11:00:09.259Z,140.62
2022-12-14T11:01:04.524Z,140.62
2022-12-14T11:02:03.052Z,140.62
2022-12-14T11:03:02.434Z,140.62
2022-12-14T11:04:01.854Z,146.25
2022-12-14T11:05:03.158Z,151.88
2022-12-14T11:06:01.537Z,157.50
2022-12-14T11:07:01.992Z,163.12
2022-12-14T11:08:02.326Z,163.12
2022-12-14T11:09:02.966Z,157.50
2022-12-14T11:10:03.247Z,151.88
2022-12-14T11:11:02.721Z,146.25
2022-12-14T11:12:04.022Z,140.62
2022-12-14T11:13:02.373Z,140.62
2022-12-14T11:14:02.706Z,140.62
2022-12-14T11:15:02.219Z,146.25
2022-12-14T11:16:01.553Z,146.25
2022-12-14T11:17:02.097Z,140.62
2022-12-14T11:18:05.491Z,140.62
2022-12-14T11:19:01.774Z,135.00
2022-12-14T11:20:03.180Z,129.38
2022-12-14T11:21:02.559Z,123.75
2022-12-14T11:22:02.962Z,123.75
2022-12-14T11:23:02.303Z,118.12
2022-12-14T11:24:01.792Z,112.50
2022-12-14T11:25:03.272Z,112.50
2022-12-14T11:26:01.598Z,106.88
2022-12-14T11:27:03.276Z,101.25
2022-12-14T11:28:01.393Z,101.25
2022-12-14T11:29:01.837Z,101.25
2022-12-14T11:30:03.231Z,101.25
2022-12-14T11:31:02.708Z,101.25
2022-12-14T11:32:02.106Z,106.88
2022-12-14T11:33:02.482Z,112.50
2022-12-14T11:34:02.824Z,118.12
2022-12-14T11:35:01.279Z,123.75
2022-12-14T11:36:02.678Z,135.00
2022-12-14T11:37:02.123Z,140.62
2022-12-14T11:38:02.788Z,140.62
2022-12-14T11:39:02.902Z,140.62
2022-12-14T11:40:03.417Z,135.00
2022-12-14T11:41:10.636Z,140.62
2022-12-14T11:42:02.112Z,140.62
2022-12-14T11:43:07.860Z,146.25
2022-12-14T11:44:01.981Z,157.50
2022-12-14T11:45:03.486Z,168.75
2022-12-14T11:46:01.835Z,174.38
2022-12-14T11:47:02.058Z,180.00
2022-12-14T11:48:02.628Z,185.62
2022-12-14T11:49:02.722Z,191.25
2022-12-14T11:50:02.401Z,191.25
2022-12-14T11:51:01.851Z,185.62
2022-12-14T11:52:02.148Z,180.00
2022-12-14T11:53:09.351Z,168.75
2022-12-14T11:54:02.045Z,157.50
2022-12-14T11:55:07.742Z,151.88
2022-12-14T11:56:02.814Z,151.88
2022-12-14T11:57:02.102Z,146.25
2022-12-14T11:58:03.688Z,151.88
2022-12-14T11:59:01.022Z,151.88
2022-12-14T12:00:02.378Z,157.50
2022-12-14T12:01:03.924Z,157.50
2022-12-14T12:02:01.426Z,163.12
2022-12-14T12:03:01.849Z,163.12
2022-12-14T12:04:01.140Z,168.75
2022-12-14T12:05:08.736Z,168.75
2022-12-14T12:06:00.807Z,174.38
2022-12-14T12:07:04.510Z,174.38
2022-12-14T12:08:03.617Z,180.00
2022-12-14T12:09:01.011Z,180.00
2022-12-14T12:10:02.394Z,180.00
2022-12-14T12:11:02.226Z,185.62
2022-12-14T12:12:01.177Z,185.62
2022-12-14T12:13:04.723Z,185.62
2022-12-14T12:14:00.956Z,191.25
2022-12-14T12:15:02.270Z,191.25
2022-12-14T12:16:00.820Z,191.25
2022-12-14T12:17:01.147Z,185.62
2022-12-14T12:18:02.612Z,185.62
2022-12-14T12:19:05.203Z,185.62
2022-12-14T12:20:02.379Z,185.62
2022-12-14T12:21:00.809Z,185.62
2022-12-14T12:22:02.057Z,185.62
2022-12-14T12:23:00.527Z,185.62
2022-12-14T12:24:00.941Z,185.62
2022-12-14T12:25:25.059Z,185.62
2022-12-14T12:26:01.682Z,185.62
2022-12-14T12:27:01.081Z,185.62
2022-12-14T12:28:02.538Z,185.62
2022-12-14T12:29:00.897Z,185.62
2022-12-14T12:30:02.282Z,185.62
2022-12-14T12:31:00.805Z,185.62
2022-12-14T12:32:01.102Z,191.25
2022-12-14T12:33:02.517Z,191.25
2022-12-14T12:34:00.912Z,191.25
2022-12-14T12:35:11.405Z,196.88
2022-12-14T12:36:02.069Z,196.88
2022-12-14T12:37:27.755Z,196.88
2022-12-14T12:38:03.634Z,202.50
2022-12-14T12:39:00.963Z,202.50
2022-12-14T12:40:00.344Z,202.50
2022-12-14T12:41:00.818Z,202.50
2022-12-14T12:42:05.200Z,202.50
2022-12-14T12:43:00.682Z,196.88
2022-12-14T12:44:01.032Z,196.88
2022-12-14T12:45:00.399Z,196.88
2022-12-14T12:46:01.875Z,196.88
2022-12-14T12:47:23.758Z,196.88
2022-12-14T12:48:01.813Z,196.88
2022-12-14T12:49:01.116Z,196.88
2022-12-14T12:50:00.477Z,196.88
2022-12-14T12:51:00.885Z,191.25
2022-12-14T12:52:00.328Z,191.25
2022-12-14T12:53:03.747Z,191.25
2022-12-14T12:54:03.280Z,185.62
2022-12-14T12:55:02.698Z,180.00
2022-12-14T12:56:00.927Z,180.00
2022-12-14T12:57:00.438Z,174.38
2022-12-14T12:58:01.801Z,168.75
2022-12-14T12:59:00.142Z,168.75
2022-12-14T13:00:01.731Z,163.12
2022-12-14T13:01:01.018Z,157.50
2022-12-14T13:02:00.433Z,157.50
2022-12-14T13:03:01.944Z,157.50